Time;durP1;ratioP1;P1;durP2;ratioP2;P2;SDS_P1;SDS_P2;PMS_P1;PMS_P2;Temp;Humidity;BMP_temperature;BMP_pressure;BME280_temperature;BME280_humidity;BME280_pressure;Samples;Min_cycle;Max_cycle;Signal;HPM_P1;HPM_P2
2022/09/06 00:00:28;;;;;;;1.63;1.52;;;;;;;17.34;69.66;100364.06;5045296;28;20514;-87
2022/09/06 00:02:54;;;;;;;2.70;1.90;;;;;;;17.88;69.92;100429.03;5025869;28;20056;-88
2022/09/06 00:05:19;;;;;;;2.92;1.88;;;;;;;17.64;68.62;100345.31;5049494;28;20037;-88
2022/09/06 00:07:45;;;;;;;3.45;1.60;;;;;;;17.82;68.51;100370.50;5031458;28;20040;-89
2022/09/06 00:10:12;;;;;;;2.25;1.50;;;;;;;17.58;67.98;100325.97;5013529;28;20042;-85
2022/09/06 00:12:38;;;;;;;4.07;1.45;;;;;;;17.85;67.73;100385.53;5040281;28;20121;-88
2022/09/06 00:15:06;;;;;;;2.92;1.90;;;;;;;17.83;67.75;100366.91;5049591;28;20115;-87
2022/09/06 00:17:32;;;;;;;2.83;1.55;;;;;;;17.89;68.25;100379.22;5025866;28;20041;-86
2022/09/06 00:19:58;;;;;;;2.30;1.60;;;;;;;17.78;68.50;100373.31;5016632;28;20033;-86
2022/09/06 00:22:23;;;;;;;4.57;1.65;;;;;;;17.87;68.39;100371.22;5036883;28;20116;-87
2022/09/06 00:24:49;;;;;;;1.95;1.60;;;;;;;17.86;68.81;100389.97;5028723;28;20056;-88
2022/09/06 00:27:14;;;;;;;2.55;1.80;;;;;;;17.64;69.17;100358.66;5010872;28;20431;-87
2022/09/06 00:29:40;;;;;;;2.85;1.90;;;;;;;17.68;69.02;100381.63;5021735;28;20033;-87
2022/09/06 00:32:05;;;;;;;5.30;1.90;;;;;;;17.56;69.93;100382.03;5038628;28;20095;-87
2022/09/06 00:34:31;;;;;;;3.28;2.05;;;;;;;17.49;69.07;100322.69;5011164;28;20033;-87
2022/09/06 00:36:56;;;;;;;3.20;2.17;;;;;;;17.70;69.29;100390.47;5017425;28;20507;-88
2022/09/06 00:39:22;;;;;;;5.00;1.80;;;;;;;17.72;69.74;100393.94;5046457;28;20049;-87
2022/09/06 00:41:47;;;;;;;7.85;2.53;;;;;;;17.43;70.32;100368.25;5028408;28;20495;-89
2022/09/06 00:44:13;;;;;;;3.90;2.13;;;;;;;17.24;71.48;100372.41;5012303;28;20091;-89
2022/09/06 00:46:44;;;;;;;3.58;1.83;;;;;;;17.46;70.73;100376.13;5028808;28;20034;-89
2022/09/06 00:49:23;;;;;;;3.80;2.22;;;;;;;17.25;70.26;100319.03;5031852;28;20088;-88
2022/09/06 00:51:54;;;;;;;4.38;1.60;;;;;;;17.39;70.67;100355.06;5029979;28;20036;-86
2022/09/06 00:54:20;;;;;;;5.63;1.35;;;;;;;17.56;71.27;100382.03;5048533;28;20036;-90
2022/09/06 00:56:46;;;;;;;4.00;2.40;;;;;;;17.34;71.02;100364.06;5032699;28;20041;-88
2022/09/06 00:59:12;;;;;;;2.33;1.60;;;;;;;17.50;70.03;100363.56;5018382;28;20122;-88
2022/09/06 01:01:38;;;;;;;5.22;2.45;;;;;;;17.34;69.97;100339.22;5028538;28;20056;-88
2022/09/06 01:04:04;;;;;;;2.90;1.98;;;;;;;17.90;69.75;100423.63;5030364;28;20087;-89
2022/09/06 01:06:43;;;;;;;6.28;2.00;;;;;;;17.77;69.16;100417.81;5048068;28;20106;-87
2022/09/06 01:09:48;;;;;;;2.15;1.50;;;;;;;17.96;69.28;100434.09;5019787;28;20060;-85
2022/09/06 01:12:50;;;;;;;3.33;1.40;;;;;;;17.84;70.12;100438.03;4998172;28;20053;-87
2022/09/06 01:15:31;;;;;;;4.70;1.88;;;;;;;17.95;70.02;100448.38;5018330;28;20048;-87
2022/09/06 01:18:24;;;;;;;2.95;1.48;;;;;;;18.05;69.72;100440.94;5027964;28;20033;-87
2022/09/06 01:21:20;;;;;;;9.00;2.50;;;;;;;17.98;69.53;100440.28;5027515;28;20116;-87
2022/09/06 01:23:54;;;;;;;2.85;1.75;;;;;;;17.86;70.17;100438.00;5041804;28;20065;-89
2022/09/06 01:26:52;;;;;;;2.58;1.70;;;;;;;17.80;70.21;100436.38;5021403;28;20137;-87
2022/09/06 01:29:20;;;;;;;3.10;2.17;;;;;;;17.91;69.70;100438.72;5003008;28;20053;-87
2022/09/06 01:32:02;;;;;;;1.95;1.13;;;;;;;17.45;69.80;100349.53;5047352;28;20037;-88
2022/09/06 01:34:34;;;;;;;3.25;1.98;;;;;;;17.46;69.51;100362.81;5024639;28;20029;-89
2022/09/06 01:37:13;;;;;;;2.83;1.60;;;;;;;17.92;69.37;100426.25;5047444;28;20431;-87
2022/09/06 01:39:40;;;;;;;3.05;1.83;;;;;;;17.80;69.42;100404.38;5047600;28;20028;-88
2022/09/06 01:42:13;;;;;;;4.88;1.60;;;;;;;17.95;69.37;100426.16;5013343;28;20057;-88
2022/09/06 01:44:53;;;;;;;2.67;1.70;;;;;;;17.95;69.30;100407.47;5029615;28;20481;-88
2022/09/06 01:47:36;;;;;;;3.67;1.90;;;;;;;17.85;69.27;100397.06;5047226;28;20040;-87
2022/09/06 01:50:26;;;;;;;2.05;1.40;;;;;;;17.92;69.37;100421.81;5045837;28;20419;-87
2022/09/06 01:53:32;;;;;;;2.67;1.67;;;;;;;17.88;69.60;100417.44;5040737;28;20086;-86
2022/09/06 01:56:04;;;;;;;2.13;1.38;;;;;;;17.66;69.87;100380.81;5041097;28;20033;-87
2022/09/06 01:58:41;;;;;;;1.77;1.40;;;;;;;17.85;69.27;100409.56;5009224;28;20041;-86
2022/09/06 02:01:28;;;;;;;4.50;2.38;;;;;;;17.45;70.04;100379.72;5022996;28;20147;-87
2022/09/06 02:04:35;;;;;;;2.08;1.42;;;;;;;17.43;70.01;100394.03;5027240;28;20555;-90
2022/09/06 02:07:14;;;;;;;2.40;1.40;;;;;;;17.26;70.37;100384.78;4951131;28;20121;-90
2022/09/06 02:09:43;;;;;;;1.77;1.50;;;;;;;17.25;70.35;100383.03;4951801;28;20049;-87
2022/09/06 02:12:12;;;;;;;2.45;1.30;;;;;;;17.08;71.29;100372.03;5005159;28;20048;-89
2022/09/06 02:14:48;;;;;;;5.53;1.88;;;;;;;17.09;71.04;100363.13;5045772;28;20083;-90
2022/09/06 02:17:19;;;;;;;3.75;2.42;;;;;;;17.35;70.69;100384.50;5039597;28;20052;-89
2022/09/06 02:20:04;;;;;;;2.42;1.63;;;;;;;17.30;70.25;100362.44;5046604;28;20048;-88
2022/09/06 02:22:32;;;;;;;;;;;;;;;17.34;70.62;100390.72;5047701;28;20060;-86
2022/09/06 02:25:00;;;;;;;2.47;1.55;;;;;;;17.08;71.34;100385.34;5029251;28;19916;-89
2022/09/06 02:27:26;;;;;;;6.22;1.95;;;;;;;17.02;70.88;100365.09;5025091;28;20040;-88
2022/09/06 02:29:51;;;;;;;3.22;2.22;;;;;;;17.04;71.06;100367.69;5009720;28;20041;-87
2022/09/06 02:32:22;;;;;;;2.65;1.35;;;;;;;16.71;71.23;100320.69;5009038;28;20032;-87
2022/09/06 02:34:54;;;;;;;3.60;2.08;;;;;;;17.08;71.15;100393.34;5008708;28;20041;-84
2022/09/06 02:37:20;;;;;;;5.70;1.92;;;;;;;17.00;71.21;100380.25;5024187;28;20067;-86
2022/09/06 02:39:45;;;;;;;2.85;1.63;;;;;;;17.10;71.08;100411.06;5046630;28;20039;-85
2022/09/06 02:42:14;;;;;;;2.38;1.80;;;;;;;16.92;71.21;100366.31;5014758;28;20548;-87
2022/09/06 02:44:39;;;;;;;3.10;1.58;;;;;;;16.97;71.86;100391.88;5008938;28;20030;-87
2022/09/06 02:47:05;;;;;;;3.85;2.13;;;;;;;17.04;71.33;100371.25;5042325;28;20519;-88
2022/09/06 02:49:30;;;;;;;3.08;2.00;;;;;;;17.08;71.63;100396.03;5028354;28;20048;-88
2022/09/06 02:51:56;;;;;;;3.17;1.85;;;;;;;16.94;71.53;100370.66;5026374;28;20045;-88
2022/09/06 02:54:22;;;;;;;3.40;2.22;;;;;;;17.04;71.61;100405.00;5009004;28;20116;-86
2022/09/06 02:56:47;;;;;;;3.17;1.70;;;;;;;16.79;71.63;100374.63;5038908;28;20021;-87
2022/09/06 02:59:13;;;;;;;3.35;2.10;;;;;;;16.88;71.17;100373.50;5038485;28;20044;-86
2022/09/06 03:01:38;;;;;;;3.63;2.10;;;;;;;16.61;71.85;100367.19;5022058;28;20037;-87
2022/09/06 03:04:04;;;;;;;4.82;1.70;;;;;;;16.77;71.66;100397.78;5045859;28;20029;-85
2022/09/06 03:06:30;;;;;;;3.42;1.80;;;;;;;16.59;72.53;100371.66;5045174;28;20115;-87
2022/09/06 03:08:55;;;;;;;2.58;1.42;;;;;;;16.81;72.30;100414.56;5027302;28;20040;-86
2022/09/06 03:11:21;;;;;;;3.95;1.73;;;;;;;16.80;71.14;100376.38;5045290;28;20033;-85
2022/09/06 03:13:46;;;;;;;3.30;1.75;;;;;;;16.85;70.75;100380.69;5028083;28;20040;-86
2022/09/06 03:16:12;;;;;;;3.22;1.85;;;;;;;16.80;71.61;100391.50;5011155;28;20037;-89
2022/09/06 03:18:37;;;;;;;7.47;1.73;;;;;;;16.90;71.16;100403.66;5026120;28;20045;-84
2022/09/06 03:21:03;;;;;;;4.03;2.05;;;;;;;16.56;71.73;100366.44;5026423;28;20061;-84
2022/09/06 03:23:29;;;;;;;2.75;1.65;;;;;;;16.90;71.39;100440.06;5026316;28;20716;-85
2022/09/06 03:25:55;;;;;;;3.70;2.53;;;;;;;16.71;71.17;100392.63;5039834;28;20032;-84
2022/09/06 03:28:21;;;;;;;6.00;1.95;;;;;;;16.79;70.52;100401.28;5045050;28;20069;-85
2022/09/06 03:30:50;;;;;;;3.60;2.15;;;;;;;16.54;70.88;100389.59;5010360;28;20033;-84
2022/09/06 03:33:16;;;;;;;5.13;3.17;;;;;;;16.64;71.36;100439.03;5029132;28;20458;-85
2022/09/06 03:35:56;;;;;;;9.98;2.67;;;;;;;16.60;71.44;100424.88;5041447;28;20041;-85
2022/09/06 03:38:23;;;;;;;8.23;3.28;;;;;;;16.38;71.73;100382.03;5026318;28;20029;-86
2022/09/06 03:40:48;;;;;;;4.80;2.92;;;;;;;16.74;71.75;100442.28;5031384;28;20041;-85
2022/09/06 03:43:16;;;;;;;4.78;2.38;;;;;;;16.64;71.85;100404.38;5031233;28;20033;-85
2022/09/06 03:45:53;;;;;;;8.65;3.70;;;;;;;16.36;72.06;100348.38;5025112;28;20510;-86
2022/09/06 03:48:20;;;;;;;4.05;2.17;;;;;;;16.74;72.33;100427.16;5029086;28;20491;-87
2022/09/06 03:50:47;;;;;;;3.58;2.70;;;;;;;16.78;72.33;100430.63;5038039;28;20075;-85
2022/09/06 03:53:13;;;;;;;3.33;2.38;;;;;;;16.85;72.02;100418.84;5030853;28;20404;-85
2022/09/06 03:55:39;;;;;;;2.45;1.90;;;;;;;16.87;71.73;100413.50;5031698;28;20063;-86
2022/09/06 03:58:05;;;;;;;4.32;2.47;;;;;;;16.65;71.83;100387.47;5047900;28;20076;-85
2022/09/06 04:00:32;;;;;;;3.38;2.10;;;;;;;16.70;71.77;100401.56;5049160;28;20041;-85
2022/09/06 04:02:58;;;;;;;8.15;3.75;;;;;;;16.58;71.89;100381.47;5042305;28;20067;-86
2022/09/06 04:05:23;;;;;;;3.63;2.60;;;;;;;16.47;71.80;100391.56;5038471;28;20068;-86
2022/09/06 04:07:49;;;;;;;5.25;3.10;;;;;;;16.55;71.77;100421.50;5031308;28;20106;-87
2022/09/06 04:10:14;;;;;;;4.68;2.35;;;;;;;16.79;72.00;100441.25;5039778;28;20029;-87
2022/09/06 04:12:40;;;;;;;7.03;3.35;;;;;;;16.63;72.44;100442.59;5049202;28;20041;-86
2022/09/06 04:15:06;;;;;;;8.18;3.22;;;;;;;16.48;72.88;100435.88;5030896;28;20474;-84
2022/09/06 04:17:31;;;;;;;6.70;3.63;;;;;;;16.66;73.22;100469.13;5047627;28;20495;-83
2022/09/06 04:19:56;;;;;;;;;;;;;;;16.42;74.22;100460.03;5017650;28;20041;-85
2022/09/06 04:22:22;;;;;;;3.05;2.20;;;;;;;16.45;73.96;100466.16;5024529;28;19971;-87
2022/09/06 04:24:47;;;;;;;9.90;2.90;;;;;;;16.44;74.04;100466.19;5045141;28;20075;-86
2022/09/06 04:27:13;;;;;;;4.82;3.30;;;;;;;16.22;74.66;100423.28;5029974;28;20033;-84
2022/09/06 04:29:38;;;;;;;5.40;3.25;;;;;;;16.38;74.07;100445.06;5045590;28;20024;-84
2022/09/06 04:32:04;;;;;;;6.80;2.63;;;;;;;16.26;74.38;100416.97;5027117;28;20094;-83
2022/09/06 04:34:29;;;;;;;4.38;2.83;;;;;;;16.56;73.94;100444.56;5026108;28;20033;-83
2022/09/06 04:36:55;;;;;;;4.57;2.85;;;;;;;16.50;74.44;100428.75;5030638;28;20053;-83
2022/09/06 04:39:20;;;;;;;4.60;2.90;;;;;;;16.51;74.51;100411.84;5039847;28;20061;-86
2022/09/06 04:41:46;;;;;;;3.78;2.60;;;;;;;16.45;75.15;100422.66;5009978;28;20095;-87
2022/09/06 04:44:11;;;;;;;5.53;2.53;;;;;;;16.80;75.04;100452.75;5035658;28;20138;-88
2022/09/06 04:46:59;;;;;;;;;;;;;;;16.83;75.12;100450.88;5043930;28;20085;-87
2022/09/06 04:53:10;;;;;;;4.97;3.13;;;;;;;16.44;76.01;100395.16;5006307;28;20048;-85
2022/09/06 04:56:14;;;;;;;6.28;3.47;;;;;;;16.87;75.57;100441.06;5029387;28;20060;-84
2022/09/06 04:58:40;;;;;;;5.35;2.78;;;;;;;16.67;76.01;100436.28;5029699;28;20535;-90
2022/09/06 05:01:06;;;;;;;4.68;2.90;;;;;;;16.15;77.00;100363.16;5024280;28;20045;-87
2022/09/06 05:03:32;;;;;;;5.03;3.58;;;;;;;16.60;76.54;100402.72;5031144;28;20045;-85
2022/09/06 05:06:26;;;;;;;7.50;3.75;;;;;;;17.17;75.59;100441.91;5026384;28;20037;-86
2022/09/06 05:08:52;;;;;;;4.68;3.40;;;;;;;16.81;75.55;100399.44;5009178;28;20056;-86
2022/09/06 05:11:18;;;;;;;9.52;3.65;;;;;;;16.56;76.49;100379.75;5026472;28;20045;-86
2022/09/06 05:13:46;;;;;;;7.18;3.15;;;;;;;16.89;75.01;100369.06;5010733;28;20037;-86
2022/09/06 05:16:11;;;;;;;6.00;3.88;;;;;;;16.78;74.61;100338.25;5025644;28;20092;-85
2022/09/06 05:18:37;;;;;;;6.35;4.40;;;;;;;17.07;75.07;100394.25;5044815;28;20072;-95
2022/09/06 05:21:03;;;;;;;6.18;3.95;;;;;;;16.86;74.95;100350.47;5012519;28;20045;-90
2022/09/06 05:23:29;;;;;;;7.60;4.35;;;;;;;17.38;74.11;100390.63;5023069;28;20037;-86
2022/09/06 05:25:54;;;;;;;5.75;3.45;;;;;;;17.57;73.88;100413.13;5016084;28;20053;-89
2022/09/06 05:28:22;;;;;;;6.90;3.72;;;;;;;17.69;72.58;100370.03;5025094;28;20064;-83
2022/09/06 05:30:48;;;;;;;9.20;3.33;;;;;;;17.66;72.25;100338.13;5025673;28;20099;-84
2022/09/06 05:33:19;;;;;;;6.28;3.95;;;;;;;18.07;72.41;100389.25;5044074;28;20036;-86
2022/09/06 05:35:45;;;;;;;9.75;3.97;;;;;;;17.80;72.05;100380.34;5046784;28;20057;-85
2022/09/06 05:38:10;;;;;;;7.22;4.05;;;;;;;17.89;71.83;100353.38;5047722;28;20514;-85
2022/09/06 05:40:36;;;;;;;4.53;3.13;;;;;;;17.95;71.47;100384.34;5029085;28;20033;-85
2022/09/06 05:43:01;;;;;;;5.93;3.13;;;;;;;18.36;71.11;100386.47;5047331;28;20025;-84
2022/09/06 05:45:27;;;;;;;6.28;3.42;;;;;;;18.38;70.16;100353.44;5027188;28;20040;-85
2022/09/06 05:47:53;;;;;;;4.70;2.83;;;;;;;18.71;70.33;100411.00;5047093;28;20037;-86
2022/09/06 05:50:19;;;;;;;13.73;5.05;;;;;;;18.67;68.64;100354.13;5047137;28;20037;-86
2022/09/06 05:52:44;;;;;;;11.32;3.13;;;;;;;19.39;67.50;100397.72;5047269;28;20021;-85
2022/09/06 05:55:10;;;;;;;4.30;2.88;;;;;;;19.27;66.59;100321.53;5046988;28;20041;-88
2022/09/06 05:57:38;;;;;;;5.30;3.67;;;;;;;19.69;65.89;100368.81;5047284;28;20044;-86
2022/09/06 06:00:05;;;;;;;6.55;3.35;;;;;;;20.08;64.25;100369.88;5047010;28;20043;-86
2022/09/06 06:02:31;;;;;;;7.65;3.83;;;;;;;20.92;63.02;100440.31;5046711;28;20029;-87
2022/09/06 06:04:57;;;;;;;5.13;3.40;;;;;;;20.10;63.15;100360.84;5045080;28;20060;-85
2022/09/06 06:07:23;;;;;;;5.53;3.45;;;;;;;20.25;62.79;100350.38;5047267;28;20041;-85
2022/09/06 06:09:49;;;;;;;5.45;4.10;;;;;;;20.13;62.91;100350.00;5046265;28;20026;-87
2022/09/06 06:12:14;;;;;;;6.68;3.30;;;;;;;20.75;62.19;100374.91;5028826;28;20124;-87
2022/09/06 06:14:40;;;;;;;6.57;3.42;;;;;;;20.92;61.12;100366.06;5025997;28;20672;-86
2022/09/06 06:17:05;;;;;;;4.70;3.03;;;;;;;21.02;61.39;100318.25;5045843;28;20058;-86
2022/09/06 06:19:31;;;;;;;3.95;2.75;;;;;;;20.73;61.37;100355.34;5046651;28;20060;-86
2022/09/06 06:21:57;;;;;;;3.90;2.70;;;;;;;21.02;61.77;100389.78;5045052;28;20064;-86
2022/09/06 06:24:22;;;;;;;5.45;3.22;;;;;;;21.32;60.14;100363.28;5043983;28;20025;-85
2022/09/06 06:26:48;;;;;;;5.43;2.88;;;;;;;21.65;59.64;100362.59;5045686;28;20086;-86
2022/09/06 06:29:14;;;;;;;4.78;3.00;;;;;;;21.88;58.28;100323.81;5046156;28;20029;-88
2022/09/06 06:31:39;;;;;;;7.43;3.47;;;;;;;21.98;57.50;100356.41;5044623;28;20041;-84
2022/09/06 06:34:05;;;;;;;6.70;3.30;;;;;;;22.05;56.73;100378.47;5040994;28;20123;-87
2022/09/06 06:36:33;;;;;;;5.57;3.60;;;;;;;22.24;56.95;100441.03;5045641;28;20056;-85
2022/09/06 06:39:00;;;;;;;4.25;2.88;;;;;;;21.82;58.21;100397.50;5046251;28;20029;-86
2022/09/06 06:41:28;;;;;;;6.10;2.60;;;;;;;22.09;55.37;100362.13;5027379;28;20029;-87
2022/09/06 06:43:56;;;;;;;6.43;3.38;;;;;;;22.50;54.76;100352.81;5046100;28;20029;-84
2022/09/06 06:46:24;;;;;;;3.08;2.40;;;;;;;23.07;54.40;100392.72;5046106;28;20036;-85
2022/09/06 06:48:50;;;;;;;6.72;3.38;;;;;;;23.47;52.90;100371.66;5026758;28;20506;-85
2022/09/06 06:51:18;;;;;;;4.03;2.63;;;;;;;23.52;52.08;100415.31;5042694;28;20132;-85
2022/09/06 06:53:48;;;;;;;3.92;2.38;;;;;;;23.07;50.94;100347.84;5046130;28;20048;-85
2022/09/06 06:56:21;;;;;;;3.75;2.47;;;;;;;23.69;52.93;100359.63;5028067;28;20037;-86
2022/09/06 06:58:48;;;;;;;6.97;2.50;;;;;;;23.57;50.72;100406.97;5046254;28;20071;-84
2022/09/06 07:01:15;;;;;;;3.50;2.13;;;;;;;22.97;54.46;100392.38;5045516;28;20033;-84
2022/09/06 07:03:40;;;;;;;2.95;1.90;;;;;;;23.66;51.09;100366.03;5046673;28;20514;-85
2022/09/06 07:06:07;;;;;;;3.50;2.03;;;;;;;23.57;50.72;100324.38;5045083;28;20028;-86
2022/09/06 07:08:33;;;;;;;3.90;2.47;;;;;;;24.08;50.46;100377.97;5045382;28;20037;-86
2022/09/06 07:10:59;;;;;;;3.80;2.33;;;;;;;24.44;49.42;100341.59;5049276;28;21323;-85
2022/09/06 07:13:24;;;;;;;5.97;2.78;;;;;;;23.82;50.13;100349.84;5034351;28;20052;-84
2022/09/06 07:15:50;;;;;;;4.93;2.33;;;;;;;23.61;50.78;100325.06;5046953;28;20048;-86
2022/09/06 07:18:16;;;;;;;5.57;2.30;;;;;;;24.63;48.72;100341.31;5046700;28;20032;-85
2022/09/06 07:20:41;;;;;;;3.90;2.42;;;;;;;24.90;48.30;100354.03;5048538;28;20048;-85
2022/09/06 07:23:07;;;;;;;3.65;2.40;;;;;;;25.08;47.05;100364.59;5031569;28;20033;-85
2022/09/06 07:25:33;;;;;;;3.90;2.28;;;;;;;25.07;46.47;100341.25;5046342;28;20033;-85
2022/09/06 07:28:07;;;;;;;4.65;2.15;;;;;;;25.17;47.17;100337.84;5049815;28;20036;-86
2022/09/06 07:30:36;;;;;;;7.90;2.50;;;;;;;25.67;45.62;100408.41;5049379;28;20551;-83
2022/09/06 07:33:07;;;;;;;3.90;2.30;;;;;;;25.51;44.08;100383.41;5049746;28;20029;-88
2022/09/06 07:35:33;;;;;;;3.40;2.13;;;;;;;24.96;46.90;100360.84;5048578;28;20049;-84
2022/09/06 07:38:00;;;;;;;2.45;1.60;;;;;;;24.44;47.27;100341.59;5049068;28;20400;-85
2022/09/06 07:40:27;;;;;;;3.20;1.85;;;;;;;24.63;45.60;100353.94;5049633;28;20491;-84
2022/09/06 07:42:59;;;;;;;2.75;2.20;;;;;;;24.81;45.71;100316.84;5049924;28;20029;-82
2022/09/06 07:45:28;;;;;;;3.10;2.00;;;;;;;24.76;45.89;100306.38;5050157;28;20094;-87
2022/09/06 07:47:58;;;;;;;3.72;2.17;;;;;;;25.27;44.16;100304.84;5047076;28;20483;-88
2022/09/06 07:50:25;;;;;;;2.83;1.73;;;;;;;25.52;44.67;100317.63;5049279;28;20029;-88
2022/09/06 07:52:51;;;;;;;3.45;2.22;;;;;;;25.36;44.57;100375.34;5031686;28;20041;-87
2022/09/06 07:55:16;;;;;;;5.20;1.70;;;;;;;25.88;42.77;100322.31;5049563;28;20048;-87
2022/09/06 07:57:42;;;;;;;6.47;3.17;;;;;;;25.85;42.55;100363.06;5044628;28;20538;-86
2022/09/06 08:00:10;;;;;;;3.10;1.75;;;;;;;26.00;42.08;100363.03;5046536;28;20044;-86
2022/09/06 08:02:35;;;;;;;4.03;1.80;;;;;;;25.96;41.78;100369.56;5047430;28;20344;-86
2022/09/06 08:05:01;;;;;;;3.38;2.10;;;;;;;25.94;42.14;100307.53;5040347;28;20498;-87
2022/09/06 08:07:26;;;;;;;1.83;1.35;;;;;;;25.60;42.51;100322.50;5029233;28;20029;-88
2022/09/06 08:09:52;;;;;;;3.83;1.88;;;;;;;25.98;41.12;100309.09;5025117;28;20544;-87
2022/09/06 08:12:18;;;;;;;3.25;1.85;;;;;;;26.24;42.52;100345.09;5026383;28;20123;-88
2022/09/06 08:14:46;;;;;;;5.78;1.63;;;;;;;26.21;44.67;100320.09;5043727;28;20478;-87
2022/09/06 08:17:11;;;;;;;2.45;1.67;;;;;;;26.20;40.62;100348.13;5011017;28;20040;-85
2022/09/06 08:19:37;;;;;;;3.58;2.53;;;;;;;25.95;40.96;100330.00;5044793;28;20415;-85
2022/09/06 08:22:02;;;;;;;5.95;3.03;;;;;;;25.78;41.80;100344.66;5048586;28;20068;-87
2022/09/06 08:24:31;;;;;;;3.05;1.80;;;;;;;25.47;43.63;100361.13;5049049;28;20029;-86
2022/09/06 08:26:57;;;;;;;5.25;4.03;;;;;;;26.06;43.04;100376.97;5031126;28;20028;-86
2022/09/06 08:29:22;;;;;;;4.30;2.92;;;;;;;25.91;42.34;100323.94;5030452;28;20120;-85
2022/09/06 08:31:48;;;;;;;4.50;2.13;;;;;;;26.27;41.14;100323.25;5049012;28;20032;-86
2022/09/06 08:34:14;;;;;;;3.80;2.88;;;;;;;26.66;39.82;100344.00;5048747;28;20496;-86
2022/09/06 08:36:40;;;;;;;5.65;2.38;;;;;;;26.64;38.58;100289.97;5048446;28;20583;-87
2022/09/06 08:39:10;;;;;;;3.50;1.95;;;;;;;26.36;42.84;100304.63;5047534;28;20029;-86
2022/09/06 08:41:57;;;;;;;3.38;1.92;;;;;;;25.36;42.61;100290.75;5048892;28;20044;-87
2022/09/06 08:44:25;;;;;;;3.95;2.63;;;;;;;25.09;44.39;100301.56;5048846;28;20430;-86
2022/09/06 08:47:06;;;;;;;4.05;2.80;;;;;;;25.48;43.01;100310.69;5048455;28;20036;-87
2022/09/06 08:49:36;;;;;;;5.95;4.43;;;;;;;26.20;42.18;100285.94;5030665;28;20029;-86
2022/09/06 08:52:45;;;;;;;7.57;3.63;;;;;;;26.73;43.85;100348.88;5047577;28;20040;-85
2022/09/06 08:55:37;;;;;;;3.80;2.20;;;;;;;26.71;43.71;100342.72;5047792;28;20029;-83
2022/09/06 08:58:28;;;;;;;4.97;2.85;;;;;;;26.93;42.72;100336.59;5047487;28;20036;-84
2022/09/06 09:00:59;;;;;;;5.80;2.45;;;;;;;26.65;42.95;100301.66;5048657;28;20511;-84
2022/09/06 09:03:36;;;;;;;3.88;2.15;;;;;;;26.84;45.02;100333.69;5048347;28;20033;-82
2022/09/06 09:06:04;;;;;;;6.90;2.40;;;;;;;26.05;43.66;100269.81;5046422;28;20037;-82
2022/09/06 09:08:57;;;;;;;3.78;2.28;;;;;;;26.16;44.99;100344.75;5046791;28;20041;-84
2022/09/06 09:11:27;;;;;;;3.38;2.15;;;;;;;26.31;42.64;100279.78;5046801;28;20125;-83
2022/09/06 09:14:11;;;;;;;4.05;2.25;;;;;;;26.84;42.32;100314.75;5046304;28;20033;-83
2022/09/06 09:16:36;;;;;;;2.95;2.08;;;;;;;26.72;41.41;100302.97;5045712;28;20607;-84
2022/09/06 09:19:04;;;;;;;2.65;2.03;;;;;;;26.53;41.10;100271.81;5046388;28;20041;-84
2022/09/06 09:21:33;;;;;;;3.35;1.77;;;;;;;26.54;40.65;100268.16;5046962;28;20040;-85
2022/09/06 09:24:03;;;;;;;3.53;1.63;;;;;;;26.37;40.54;100254.97;5048087;28;20407;-87
2022/09/06 09:26:35;;;;;;;6.78;2.03;;;;;;;26.04;40.92;100237.50;5047422;28;20745;-84
2022/09/06 09:29:04;;;;;;;7.30;1.85;;;;;;;25.97;41.13;100247.00;5048012;28;20033;-83
2022/09/06 09:31:35;;;;;;;2.80;1.90;;;;;;;26.01;41.48;100276.44;5047382;28;20131;-86
2022/09/06 09:34:03;;;;;;;2.85;1.77;;;;;;;25.99;41.75;100232.41;5047427;28;20033;-83
2022/09/06 09:36:30;;;;;;;4.22;1.17;;;;;;;26.08;41.12;100210.13;5047502;28;20049;-82
2022/09/06 09:38:57;;;;;;;2.40;1.30;;;;;;;25.96;42.82;100245.25;5047624;28;20043;-82
2022/09/06 09:41:34;;;;;;;2.33;1.77;;;;;;;26.23;41.58;100256.00;5047393;28;20036;-85
2022/09/06 09:44:16;;;;;;;1.95;1.52;;;;;;;26.28;39.85;100232.19;5048374;28;20093;-86
2022/09/06 09:46:42;;;;;;;2.45;1.67;;;;;;;26.07;41.69;100213.84;5047676;28;20029;-83
2022/09/06 09:49:28;;;;;;;2.47;1.50;;;;;;;26.00;40.94;100206.28;5046760;28;20047;-83
2022/09/06 09:52:10;;;;;;;2.80;1.58;;;;;;;25.94;41.05;100225.59;5047289;28;20044;-86
2022/09/06 09:54:39;;;;;;;3.25;1.70;;;;;;;25.97;41.46;100228.94;5048013;28;20590;-84
2022/09/06 09:57:18;;;;;;;3.00;1.90;;;;;;;25.84;40.82;100212.75;5047325;28;20032;-83
2022/09/06 09:59:57;;;;;;;4.57;2.78;;;;;;;26.04;41.50;100218.56;5029514;28;20033;-83
2022/09/06 10:02:34;;;;;;;2.50;1.63;;;;;;;26.16;40.54;100228.50;5029033;28;20518;-83
2022/09/06 10:05:20;;;;;;;3.28;1.50;;;;;;;26.58;40.81;100234.47;5028799;28;20408;-83
2022/09/06 10:07:54;;;;;;;2.53;1.30;;;;;;;25.69;40.44;100173.31;5045930;28;20045;-83
2022/09/06 10:10:25;;;;;;;4.07;1.98;;;;;;;25.88;40.64;100207.97;5046885;28;20033;-82
2022/09/06 10:13:20;;;;;;;2.30;1.60;;;;;;;26.22;41.13;100257.81;5046951;28;20032;-83
2022/09/06 10:15:47;;;;;;;1.83;1.30;;;;;;;26.00;42.35;100200.88;5047152;28;20503;-87
2022/09/06 10:18:32;;;;;;;2.47;1.50;;;;;;;25.86;40.91;100228.84;5027550;28;20589;-85
2022/09/06 10:21:05;;;;;;;2.38;1.20;;;;;;;25.78;41.90;100220.38;5045539;28;20056;-85
2022/09/06 10:24:13;;;;;;;2.72;1.50;;;;;;;26.31;39.97;100234.66;5045306;28;20044;-84
2022/09/06 10:26:50;;;;;;;4.93;1.60;;;;;;;26.22;40.16;100173.13;5045899;28;20036;-85
2022/09/06 10:29:49;;;;;;;3.25;1.75;;;;;;;26.54;40.07;100232.09;5046209;28;20029;-84
2022/09/06 10:32:39;;;;;;;2.25;1.35;;;;;;;26.42;40.53;100228.47;5028265;28;20495;-84
2022/09/06 10:35:23;;;;;;;2.15;1.60;;;;;;;26.44;40.27;100224.66;5046993;28;20551;-83
2022/09/06 10:38:04;;;;;;;2.90;2.08;;;;;;;26.70;39.26;100221.91;5046453;28;20037;-83
2022/09/06 10:40:40;;;;;;;11.98;2.08;;;;;;;26.51;39.09;100178.22;5046766;28;20534;-83
2022/09/06 10:43:10;;;;;;;3.97;1.55;;;;;;;26.49;38.28;100202.69;5045602;28;20130;-83
2022/09/06 10:45:59;;;;;;;3.63;1.70;;;;;;;26.77;39.70;100215.09;5044181;28;20029;-83
2022/09/06 10:48:24;;;;;;;2.30;1.80;;;;;;;27.05;39.50;100209.41;5041988;28;20561;-83
2022/09/06 10:51:17;;;;;;;2.33;1.52;;;;;;;26.97;39.44;100159.44;5025677;28;20064;-83
2022/09/06 10:54:01;;;;;;;1.35;1.00;;;;;;;26.63;39.02;100204.38;5037621;28;20522;-83
2022/09/06 10:56:59;;;;;;;2.07;1.57;;;;;;;26.48;41.92;100195.56;5037789;28;20025;-86
2022/09/06 10:59:30;;;;;;;3.38;1.63;;;;;;;26.61;41.08;100195.50;5031473;28;20045;-84
2022/09/06 11:02:26;;;;;;;2.28;1.50;;;;;;;26.82;40.07;100203.03;5042478;28;20033;-84
2022/09/06 11:04:52;;;;;;;1.52;1.27;;;;;;;26.56;39.24;100149.88;5037559;28;20109;-85
2022/09/06 11:07:23;;;;;;;1.88;1.20;;;;;;;26.85;38.07;100190.16;5043670;28;20123;-82
2022/09/06 11:09:59;;;;;;;2.50;1.25;;;;;;;26.81;40.95;100139.94;5040909;28;20029;-82
2022/09/06 11:12:30;;;;;;;3.25;1.65;;;;;;;26.77;38.59;100192.56;5031389;28;20586;-82
2022/09/06 11:14:56;;;;;;;3.03;1.30;;;;;;;26.33;40.39;100127.25;5038731;28;20040;-82
2022/09/06 11:17:40;;;;;;;1.60;1.02;;;;;;;26.73;39.92;100162.16;5043835;28;20036;-83
2022/09/06 11:20:23;;;;;;;2.05;1.50;;;;;;;26.88;39.21;100127.69;5045910;28;20032;-85
2022/09/06 11:23:18;;;;;;;1.52;1.33;;;;;;;26.96;37.98;100146.88;5026509;28;20029;-83
2022/09/06 11:26:05;;;;;;;3.20;1.40;;;;;;;27.16;37.29;100185.97;5045913;28;20115;-82
2022/09/06 11:28:34;;;;;;;1.45;0.85;;;;;;;26.55;36.96;100118.38;5046097;28;20033;-83
2022/09/06 11:31:02;;;;;;;2.08;1.27;;;;;;;26.32;36.34;100106.59;5041626;28;20087;-85
2022/09/06 11:33:30;;;;;;;2.05;1.25;;;;;;;26.12;37.17;100131.53;5044027;28;20032;-85
2022/09/06 11:36:23;;;;;;;2.17;1.23;;;;;;;26.78;37.89;100178.91;5044604;28;20132;-83
2022/09/06 11:38:57;;;;;;;3.20;1.20;;;;;;;26.38;37.68;100072.81;5045724;28;20106;-83
2022/09/06 11:41:29;;;;;;;3.03;1.58;;;;;;;26.92;37.11;100177.00;5044818;28;20035;-83
2022/09/06 11:43:55;;;;;;;2.08;1.35;;;;;;;26.65;36.39;100079.81;5027480;28;20470;-82
2022/09/06 11:46:32;;;;;;;1.90;1.20;;;;;;;27.28;38.20;100156.19;5045407;28;20120;-83
2022/09/06 11:49:07;;;;;;;2.30;1.50;;;;;;;27.10;35.61;100083.56;5046048;28;20037;-84